sensor_id;sensor_type;location;lat;lon;timestamp;pressure;altitude;pressure_sealevel;temperature;humidity
66742;BME280;53654;54.152;19.432;2023-01-15T00:00:01;100159.77;;;6.64;73.58
66742;BME280;53654;54.152;19.432;2023-01-15T00:02:31;100156.12;;;6.67;73.48
66742;BME280;53654;54.152;19.432;2023-01-15T00:05:00;100134.64;;;6.63;73.56
66742;BME280;53654;54.152;19.432;2023-01-15T00:07:30;100122.67;;;6.64;73.56
66742;BME280;53654;54.152;19.432;2023-01-15T00:09:58;100123.89;;;6.65;73.60
66742;BME280;53654;54.152;19.432;2023-01-15T00:12:26;100119.04;;;6.64;73.71
66742;BME280;53654;54.152;19.432;2023-01-15T00:14:54;100120.58;;;6.66;73.70
66742;BME280;53654;54.152;19.432;2023-01-15T00:17:25;100120.23;;;6.64;73.86
66742;BME280;53654;54.152;19.432;2023-01-15T00:19:53;100122.67;;;6.66;73.91
66742;BME280;53654;54.152;19.432;2023-01-15T00:22:21;100119.90;;;6.67;74.07
66742;BME280;53654;54.152;19.432;2023-01-15T00:24:49;100110.35;;;6.66;73.81
66742;BME280;53654;54.152;19.432;2023-01-15T00:27:36;100113.49;;;6.63;73.97
66742;BME280;53654;54.152;19.432;2023-01-15T00:30:11;100119.56;;;6.62;74.01
66742;BME280;53654;54.152;19.432;2023-01-15T00:32:40;100109.16;;;6.63;73.96
66742;BME280;53654;54.152;19.432;2023-01-15T00:35:20;100114.01;;;6.64;74.03
66742;BME280;53654;54.152;19.432;2023-01-15T00:37:49;100110.55;;;6.62;74.18
66742;BME280;53654;54.152;19.432;2023-01-15T00:40:18;100106.73;;;6.62;74.27
66742;BME280;53654;54.152;19.432;2023-01-15T00:42:47;100112.62;;;6.64;74.25
66742;BME280;53654;54.152;19.432;2023-01-15T00:45:21;100112.27;;;6.66;74.20
66742;BME280;53654;54.152;19.432;2023-01-15T00:47:50;100108.79;;;6.69;74.08
66742;BME280;53654;54.152;19.432;2023-01-15T00:50:18;100111.91;;;6.71;74.10
66742;BME280;53654;54.152;19.432;2023-01-15T00:52:46;100106.52;;;6.73;73.91
66742;BME280;53654;54.152;19.432;2023-01-15T00:55:14;100122.81;;;6.77;74.02
66742;BME280;53654;54.152;19.432;2023-01-15T00:57:42;100116.56;;;6.81;73.72
66742;BME280;53654;54.152;19.432;2023-01-15T01:00:11;100125.57;;;6.84;73.78
66742;BME280;53654;54.152;19.432;2023-01-15T01:02:39;100124.52;;;6.87;73.59
66742;BME280;53654;54.152;19.432;2023-01-15T01:05:08;100122.95;;;6.89;73.41
66742;BME280;53654;54.152;19.432;2023-01-15T01:07:36;100119.30;;;6.92;73.37
66742;BME280;53654;54.152;19.432;2023-01-15T01:10:05;100109.92;;;6.96;73.23
66742;BME280;53654;54.152;19.432;2023-01-15T01:12:35;100118.58;;;7.00;73.09
66742;BME280;53654;54.152;19.432;2023-01-15T01:15:05;100114.04;;;7.05;72.88
66742;BME280;53654;54.152;19.432;2023-01-15T01:17:33;100095.45;;;7.11;72.71
66742;BME280;53654;54.152;19.432;2023-01-15T01:20:03;100090.76;;;7.13;72.62
66742;BME280;53654;54.152;19.432;2023-01-15T01:22:31;100077.92;;;7.14;72.49
66742;BME280;53654;54.152;19.432;2023-01-15T01:25:01;100084.67;;;7.18;72.49
66742;BME280;53654;54.152;19.432;2023-01-15T01:27:29;100068.36;;;7.19;72.47
66742;BME280;53654;54.152;19.432;2023-01-15T01:29:58;100050.84;;;7.19;72.28
66742;BME280;53654;54.152;19.432;2023-01-15T01:32:26;100023.10;;;7.17;72.18
66742;BME280;53654;54.152;19.432;2023-01-15T01:34:56;100024.30;;;7.18;72.04
66742;BME280;53654;54.152;19.432;2023-01-15T01:37:24;100001.41;;;7.18;71.98
66742;BME280;53654;54.152;19.432;2023-01-15T01:39:52;99996.20;;;7.16;71.89
66742;BME280;53654;54.152;19.432;2023-01-15T01:42:22;99988.92;;;7.16;71.94
66742;BME280;53654;54.152;19.432;2023-01-15T01:47:20;99980.78;;;7.15;71.93
66742;BME280;53654;54.152;19.432;2023-01-15T01:49:53;99977.64;;;7.18;71.88
66742;BME280;53654;54.152;19.432;2023-01-15T01:52:29;99961.50;;;7.18;71.75
66742;BME280;53654;54.152;19.432;2023-01-15T01:54:59;99963.74;;;7.21;71.55
66742;BME280;53654;54.152;19.432;2023-01-15T01:57:28;99973.09;;;7.24;71.41
66742;BME280;53654;54.152;19.432;2023-01-15T01:59:58;99980.89;;;7.24;71.27
66742;BME280;53654;54.152;19.432;2023-01-15T02:02:28;99986.95;;;7.26;70.99
66742;BME280;53654;54.152;19.432;2023-01-15T02:04:56;99978.59;;;7.30;70.84
66742;BME280;53654;54.152;19.432;2023-01-15T02:07:25;99973.19;;;7.34;70.64
66742;BME280;53654;54.152;19.432;2023-01-15T02:09:53;99976.64;;;7.36;70.40
66742;BME280;53654;54.152;19.432;2023-01-15T02:12:36;99955.61;;;7.39;70.26
66742;BME280;53654;54.152;19.432;2023-01-15T02:15:14;99945.55;;;7.39;70.17
66742;BME280;53654;54.152;19.432;2023-01-15T02:17:50;99947.09;;;7.42;69.97
66742;BME280;53654;54.152;19.432;2023-01-15T02:20:41;99934.23;;;7.44;69.86
66742;BME280;53654;54.152;19.432;2023-01-15T02:29:07;99918.79;;;7.44;69.49
66742;BME280;53654;54.152;19.432;2023-01-15T02:31:41;99917.20;;;7.48;69.40
66742;BME280;53654;54.152;19.432;2023-01-15T02:34:29;99920.48;;;7.49;69.22
66742;BME280;53654;54.152;19.432;2023-01-15T02:37:12;99911.45;;;7.51;68.90
66742;BME280;53654;54.152;19.432;2023-01-15T02:39:44;99906.56;;;7.52;68.83
66742;BME280;53654;54.152;19.432;2023-01-15T02:42:16;99904.13;;;7.53;68.49
66742;BME280;53654;54.152;19.432;2023-01-15T02:44:50;99897.89;;;7.53;68.40
66742;BME280;53654;54.152;19.432;2023-01-15T02:47:24;99889.20;;;7.54;68.34
66742;BME280;53654;54.152;19.432;2023-01-15T02:49:58;99884.67;;;7.54;68.37
66742;BME280;53654;54.152;19.432;2023-01-15T02:52:43;99893.86;;;7.57;68.37
66742;BME280;53654;54.152;19.432;2023-01-15T02:55:42;99897.46;;;7.60;68.29
66742;BME280;53654;54.152;19.432;2023-01-15T02:58:16;99887.44;;;7.57;68.19
66742;BME280;53654;54.152;19.432;2023-01-15T03:00:48;99884.61;;;7.61;68.23
66742;BME280;53654;54.152;19.432;2023-01-15T03:03:37;99883.01;;;7.65;68.08
66742;BME280;53654;54.152;19.432;2023-01-15T03:06:24;99877.46;;;7.64;68.14
66742;BME280;53654;54.152;19.432;2023-01-15T03:08:54;99868.77;;;7.67;68.15
66742;BME280;53654;54.152;19.432;2023-01-15T03:11:23;99871.85;;;7.69;68.16
66742;BME280;53654;54.152;19.432;2023-01-15T03:14:02;99865.04;;;7.73;68.02
66742;BME280;53654;54.152;19.432;2023-01-15T03:16:44;99862.77;;;7.75;68.01
66742;BME280;53654;54.152;19.432;2023-01-15T03:26:56;99858.00;;;7.81;67.52
66742;BME280;53654;54.152;19.432;2023-01-15T03:29:28;99847.38;;;7.84;67.38
66742;BME280;53654;54.152;19.432;2023-01-15T03:31:58;99842.17;;;7.84;67.23
66742;BME280;53654;54.152;19.432;2023-01-15T03:34:35;99829.47;;;7.87;67.08
66742;BME280;53654;54.152;19.432;2023-01-15T03:37:06;99824.09;;;7.86;66.85
66742;BME280;53654;54.152;19.432;2023-01-15T03:39:34;99815.54;;;7.89;66.80
66742;BME280;53654;54.152;19.432;2023-01-15T03:45:07;99809.92;;;7.94;66.68
66742;BME280;53654;54.152;19.432;2023-01-15T03:48:00;99801.73;;;7.96;66.11
66742;BME280;53654;54.152;19.432;2023-01-15T03:50:40;99799.16;;;7.94;66.26
66742;BME280;53654;54.152;19.432;2023-01-15T03:56:22;99803.28;;;7.97;66.19
66742;BME280;53654;54.152;19.432;2023-01-15T03:58:57;99802.40;;;7.98;66.08
66742;BME280;53654;54.152;19.432;2023-01-15T04:01:40;99803.75;;;8.02;65.85
66742;BME280;53654;54.152;19.432;2023-01-15T04:04:11;99804.57;;;8.05;65.72
66742;BME280;53654;54.152;19.432;2023-01-15T04:06:42;99805.71;;;8.11;65.56
66742;BME280;53654;54.152;19.432;2023-01-15T04:09:12;99798.71;;;8.15;65.37
66742;BME280;53654;54.152;19.432;2023-01-15T04:11:43;99800.55;;;8.19;65.14
66742;BME280;53654;54.152;19.432;2023-01-15T04:14:13;99799.33;;;8.21;65.04
66742;BME280;53654;54.152;19.432;2023-01-15T04:16:48;99799.15;;;8.21;64.98
66742;BME280;53654;54.152;19.432;2023-01-15T04:19:17;99800.86;;;8.22;64.96
66742;BME280;53654;54.152;19.432;2023-01-15T04:21:52;99793.55;;;8.24;64.83
66742;BME280;53654;54.152;19.432;2023-01-15T04:24:20;99793.86;;;8.26;64.94
66742;BME280;53654;54.152;19.432;2023-01-15T04:26:48;99782.72;;;8.27;64.57
66742;BME280;53654;54.152;19.432;2023-01-15T04:29:16;99785.85;;;8.28;64.37
66742;BME280;53654;54.152;19.432;2023-01-15T04:31:44;99780.94;;;8.30;64.52
66742;BME280;53654;54.152;19.432;2023-01-15T04:34:12;99779.36;;;8.33;64.66
66742;BME280;53654;54.152;19.432;2023-01-15T04:36:41;99782.48;;;8.34;64.44
66742;BME280;53654;54.152;19.432;2023-01-15T04:39:10;99776.90;;;8.35;64.45
66742;BME280;53654;54.152;19.432;2023-01-15T04:41:38;99770.93;;;8.39;64.46
66742;BME280;53654;54.152;19.432;2023-01-15T04:44:25;99766.88;;;8.43;64.45
66742;BME280;53654;54.152;19.432;2023-01-15T04:46:55;99765.08;;;8.47;64.42
66742;BME280;53654;54.152;19.432;2023-01-15T04:49:24;99761.92;;;8.48;64.34
66742;BME280;53654;54.152;19.432;2023-01-15T04:51:53;99759.66;;;8.49;64.35
66742;BME280;53654;54.152;19.432;2023-01-15T04:54:21;99762.77;;;8.51;64.12
66742;BME280;53654;54.152;19.432;2023-01-15T04:56:52;99759.61;;;8.52;64.15
66742;BME280;53654;54.152;19.432;2023-01-15T04:59:23;99749.19;;;8.52;64.11
66742;BME280;53654;54.152;19.432;2023-01-15T05:01:52;99743.48;;;8.50;63.99
66742;BME280;53654;54.152;19.432;2023-01-15T05:04:33;99732.02;;;8.50;64.23
66742;BME280;53654;54.152;19.432;2023-01-15T05:07:02;99724.55;;;8.49;64.11
66742;BME280;53654;54.152;19.432;2023-01-15T05:09:31;99718.89;;;8.44;64.18
66742;BME280;53654;54.152;19.432;2023-01-15T05:12:00;99708.64;;;8.44;64.40
66742;BME280;53654;54.152;19.432;2023-01-15T05:14:28;99713.00;;;8.43;64.54
66742;BME280;53654;54.152;19.432;2023-01-15T05:16:56;99720.80;;;8.44;64.77
66742;BME280;53654;54.152;19.432;2023-01-15T05:19:24;99726.88;;;8.45;64.90
66742;BME280;53654;54.152;19.432;2023-01-15T05:21:52;99722.52;;;8.46;64.93
66742;BME280;53654;54.152;19.432;2023-01-15T05:24:21;99718.33;;;8.47;64.77
66742;BME280;53654;54.152;19.432;2023-01-15T05:26:49;99713.97;;;8.48;64.81
66742;BME280;53654;54.152;19.432;2023-01-15T05:29:17;99709.41;;;8.50;64.86
66742;BME280;53654;54.152;19.432;2023-01-15T05:31:45;99709.63;;;8.48;65.03
66742;BME280;53654;54.152;19.432;2023-01-15T05:34:13;99704.39;;;8.49;65.04
66742;BME280;53654;54.152;19.432;2023-01-15T05:36:41;99700.01;;;8.51;65.20
66742;BME280;53654;54.152;19.432;2023-01-15T05:39:09;99697.70;;;8.54;65.34
66742;BME280;53654;54.152;19.432;2023-01-15T05:41:38;99700.48;;;8.54;65.50
66742;BME280;53654;54.152;19.432;2023-01-15T05:44:24;99700.85;;;8.52;65.79
66742;BME280;53654;54.152;19.432;2023-01-15T05:46:54;99702.79;;;8.51;66.10
66742;BME280;53654;54.152;19.432;2023-01-15T05:49:25;99704.15;;;8.53;66.26
66742;BME280;53654;54.152;19.432;2023-01-15T05:51:54;99703.09;;;8.54;66.31
66742;BME280;53654;54.152;19.432;2023-01-15T05:54:24;99694.22;;;8.54;66.68
66742;BME280;53654;54.152;19.432;2023-01-15T05:56:54;99677.52;;;8.55;67.03
66742;BME280;53654;54.152;19.432;2023-01-15T05:59:24;99672.34;;;8.53;67.48
66742;BME280;53654;54.152;19.432;2023-01-15T06:01:54;99677.06;;;8.51;68.11
66742;BME280;53654;54.152;19.432;2023-01-15T06:04:22;99672.55;;;8.51;68.60
66742;BME280;53654;54.152;19.432;2023-01-15T06:06:53;99672.08;;;8.48;68.96
66742;BME280;53654;54.152;19.432;2023-01-15T06:09:22;99684.75;;;8.38;69.39
66742;BME280;53654;54.152;19.432;2023-01-15T06:11:50;99690.91;;;8.34;69.95
66742;BME280;53654;54.152;19.432;2023-01-15T06:14:20;99685.52;;;8.33;70.13
66742;BME280;53654;54.152;19.432;2023-01-15T06:16:48;99686.58;;;8.33;70.14
66742;BME280;53654;54.152;19.432;2023-01-15T06:19:17;99680.17;;;8.30;69.96
66742;BME280;53654;54.152;19.432;2023-01-15T06:21:45;99679.35;;;8.26;70.22
66742;BME280;53654;54.152;19.432;2023-01-15T06:24:13;99679.20;;;8.25;70.61
66742;BME280;53654;54.152;19.432;2023-01-15T06:26:44;99673.68;;;8.23;71.01
66742;BME280;53654;54.152;19.432;2023-01-15T06:29:12;99674.09;;;8.19;71.34
66742;BME280;53654;54.152;19.432;2023-01-15T06:31:44;99667.87;;;8.17;71.66
66742;BME280;53654;54.152;19.432;2023-01-15T06:34:13;99670.86;;;8.14;71.80
66742;BME280;53654;54.152;19.432;2023-01-15T06:36:41;99675.07;;;8.12;71.99
66742;BME280;53654;54.152;19.432;2023-01-15T06:39:09;99674.61;;;8.07;72.51
66742;BME280;53654;54.152;19.432;2023-01-15T06:41:37;99678.67;;;8.03;73.20
66742;BME280;53654;54.152;19.432;2023-01-15T06:44:23;99681.39;;;7.96;74.16
66742;BME280;53654;54.152;19.432;2023-01-15T06:47:15;99679.21;;;7.90;74.34
66742;BME280;53654;54.152;19.432;2023-01-15T06:49:56;99679.81;;;7.84;75.20
66742;BME280;53654;54.152;19.432;2023-01-15T06:52:26;99679.16;;;7.81;75.59
66742;BME280;53654;54.152;19.432;2023-01-15T06:54:55;99674.90;;;7.76;76.39
66742;BME280;53654;54.152;19.432;2023-01-15T06:57:23;99674.05;;;7.74;76.98
66742;BME280;53654;54.152;19.432;2023-01-15T06:59:51;99678.77;;;7.72;77.48
66742;BME280;53654;54.152;19.432;2023-01-15T07:02:19;99681.22;;;7.71;77.85
66742;BME280;53654;54.152;19.432;2023-01-15T07:04:49;99680.17;;;7.71;78.03
66742;BME280;53654;54.152;19.432;2023-01-15T07:07:18;99681.58;;;7.70;78.36
66742;BME280;53654;54.152;19.432;2023-01-15T07:09:47;99687.49;;;7.70;78.52
66742;BME280;53654;54.152;19.432;2023-01-15T07:12:15;99686.45;;;7.69;78.86
66742;BME280;53654;54.152;19.432;2023-01-15T07:14:44;99694.98;;;7.68;78.89
66742;BME280;53654;54.152;19.432;2023-01-15T07:17:12;99696.89;;;7.67;79.14
66742;BME280;53654;54.152;19.432;2023-01-15T07:19:41;99694.66;;;7.66;79.52
66742;BME280;53654;54.152;19.432;2023-01-15T07:22:10;99697.31;;;7.62;79.57
66742;BME280;53654;54.152;19.432;2023-01-15T07:24:40;99692.70;;;7.56;79.99
66742;BME280;53654;54.152;19.432;2023-01-15T07:27:08;99692.55;;;7.54;80.32
66742;BME280;53654;54.152;19.432;2023-01-15T07:29:36;99688.59;;;7.52;80.56
66742;BME280;53654;54.152;19.432;2023-01-15T07:32:05;99688.88;;;7.44;81.12
66742;BME280;53654;54.152;19.432;2023-01-15T07:34:33;99682.15;;;7.40;81.33
66742;BME280;53654;54.152;19.432;2023-01-15T07:37:01;99680.63;;;7.38;81.59
66742;BME280;53654;54.152;19.432;2023-01-15T07:39:29;99684.81;;;7.35;81.91
66742;BME280;53654;54.152;19.432;2023-01-15T07:41:59;99680.67;;;7.33;82.19
66742;BME280;53654;54.152;19.432;2023-01-15T07:44:46;99684.36;;;7.30;82.33
66742;BME280;53654;54.152;19.432;2023-01-15T07:47:32;99679.37;;;7.27;82.81
66742;BME280;53654;54.152;19.432;2023-01-15T07:50:21;99674.55;;;7.23;83.10
66742;BME280;53654;54.152;19.432;2023-01-15T07:52:50;99674.91;;;7.22;83.39
66742;BME280;53654;54.152;19.432;2023-01-15T07:55:21;99679.63;;;7.19;83.56
66742;BME280;53654;54.152;19.432;2023-01-15T07:57:49;99681.19;;;7.19;83.70
66742;BME280;53654;54.152;19.432;2023-01-15T08:00:20;99686.05;;;7.19;83.90
66742;BME280;53654;54.152;19.432;2023-01-15T08:02:48;99681.92;;;7.16;84.12
66742;BME280;53654;54.152;19.432;2023-01-15T08:05:18;99677.77;;;7.15;84.43
66742;BME280;53654;54.152;19.432;2023-01-15T08:07:46;99667.53;;;7.15;84.71
66742;BME280;53654;54.152;19.432;2023-01-15T08:10:16;99666.35;;;7.13;84.82
66742;BME280;53654;54.152;19.432;2023-01-15T08:12:44;99662.36;;;7.12;84.96
66742;BME280;53654;54.152;19.432;2023-01-15T08:15:32;99671.09;;;7.07;85.32
66742;BME280;53654;54.152;19.432;2023-01-15T08:18:02;99666.56;;;7.09;85.39
66742;BME280;53654;54.152;19.432;2023-01-15T08:20:30;99666.02;;;7.11;85.59
66742;BME280;53654;54.152;19.432;2023-01-15T08:22:59;99672.55;;;7.18;85.64
66742;BME280;53654;54.152;19.432;2023-01-15T08:25:27;99671.81;;;7.20;85.76
66742;BME280;53654;54.152;19.432;2023-01-15T08:28:00;99668.83;;;7.23;85.70
66742;BME280;53654;54.152;19.432;2023-01-15T08:30:29;99670.36;;;7.25;85.65
66742;BME280;53654;54.152;19.432;2023-01-15T08:32:59;99671.45;;;7.22;85.70
66742;BME280;53654;54.152;19.432;2023-01-15T08:35:27;99670.56;;;7.24;85.89
66742;BME280;53654;54.152;19.432;2023-01-15T08:37:55;99673.27;;;7.29;86.10
66742;BME280;53654;54.152;19.432;2023-01-15T08:40:23;99673.55;;;7.34;86.23
66742;BME280;53654;54.152;19.432;2023-01-15T08:42:52;99670.09;;;7.34;85.92
66742;BME280;53654;54.152;19.432;2023-01-15T08:45:23;99670.27;;;7.33;86.29
66742;BME280;53654;54.152;19.432;2023-01-15T08:47:54;99674.40;;;7.35;86.39
66742;BME280;53654;54.152;19.432;2023-01-15T08:50:23;99676.50;;;7.34;86.38
66742;BME280;53654;54.152;19.432;2023-01-15T08:52:51;99673.70;;;7.36;86.65
66742;BME280;53654;54.152;19.432;2023-01-15T08:55:19;99671.41;;;7.39;86.73
66742;BME280;53654;54.152;19.432;2023-01-15T08:57:47;99668.79;;;7.40;86.78
66742;BME280;53654;54.152;19.432;2023-01-15T09:00:16;99669.11;;;7.41;86.92
66742;BME280;53654;54.152;19.432;2023-01-15T09:02:44;99670.45;;;7.46;86.96
66742;BME280;53654;54.152;19.432;2023-01-15T09:05:14;99663.45;;;7.51;87.03
66742;BME280;53654;54.152;19.432;2023-01-15T09:07:42;99663.06;;;7.54;87.03
66742;BME280;53654;54.152;19.432;2023-01-15T09:10:10;99664.59;;;7.57;87.16
66742;BME280;53654;54.152;19.432;2023-01-15T09:12:38;99666.27;;;7.60;87.19
66742;BME280;53654;54.152;19.432;2023-01-15T09:15:07;99665.54;;;7.63;87.03
66742;BME280;53654;54.152;19.432;2023-01-15T09:17:35;99663.64;;;7.63;87.06
66742;BME280;53654;54.152;19.432;2023-01-15T09:20:10;99657.19;;;7.64;87.22
66742;BME280;53654;54.152;19.432;2023-01-15T09:22:38;99654.34;;;7.69;87.28
66742;BME280;53654;54.152;19.432;2023-01-15T09:25:07;99652.00;;;7.75;87.27
66742;BME280;53654;54.152;19.432;2023-01-15T09:27:35;99645.73;;;7.76;87.04
66742;BME280;53654;54.152;19.432;2023-01-15T09:30:05;99648.84;;;7.78;87.17
66742;BME280;53654;54.152;19.432;2023-01-15T09:32:33;99643.60;;;7.80;87.27
66742;BME280;53654;54.152;19.432;2023-01-15T09:35:02;99642.38;;;7.80;87.30
66742;BME280;53654;54.152;19.432;2023-01-15T09:37:30;99634.85;;;7.84;87.33
66742;BME280;53654;54.152;19.432;2023-01-15T09:39:58;99633.58;;;7.89;87.37
66742;BME280;53654;54.152;19.432;2023-01-15T09:45:25;99624.60;;;7.96;87.07
66742;BME280;53654;54.152;19.432;2023-01-15T09:51:02;99624.23;;;7.97;87.12
66742;BME280;53654;54.152;19.432;2023-01-15T09:56:26;99612.38;;;8.00;87.50
66742;BME280;53654;54.152;19.432;2023-01-15T09:58:56;99608.45;;;8.06;87.59
66742;BME280;53654;54.152;19.432;2023-01-15T10:01:29;99608.91;;;8.10;87.55
66742;BME280;53654;54.152;19.432;2023-01-15T10:04:05;99608.48;;;8.16;87.42
66742;BME280;53654;54.152;19.432;2023-01-15T10:06:42;99607.56;;;8.19;87.38
66742;BME280;53654;54.152;19.432;2023-01-15T10:09:26;99608.70;;;8.23;87.41
66742;BME280;53654;54.152;19.432;2023-01-15T10:12:20;99608.48;;;8.26;87.39
66742;BME280;53654;54.152;19.432;2023-01-15T10:17:45;99608.41;;;8.29;87.35
66742;BME280;53654;54.152;19.432;2023-01-15T10:28:40;99608.92;;;8.41;87.23
66742;BME280;53654;54.152;19.432;2023-01-15T10:31:19;99609.55;;;8.46;87.25
66742;BME280;53654;54.152;19.432;2023-01-15T10:37:11;99613.60;;;8.52;87.39
66742;BME280;53654;54.152;19.432;2023-01-15T10:40:03;99636.02;;;8.53;87.49
66742;BME280;53654;54.152;19.432;2023-01-15T10:45:24;99655.11;;;8.44;85.07
66742;BME280;53654;54.152;19.432;2023-01-15T10:47:59;99664.17;;;8.30;83.63
66742;BME280;53654;54.152;19.432;2023-01-15T10:50:28;99673.59;;;8.17;83.10
66742;BME280;53654;54.152;19.432;2023-01-15T10:53:10;99675.02;;;8.03;82.53
66742;BME280;53654;54.152;19.432;2023-01-15T10:55:44;99668.70;;;7.85;82.56
66742;BME280;53654;54.152;19.432;2023-01-15T11:00:47;99673.96;;;7.57;82.65
66742;BME280;53654;54.152;19.432;2023-01-15T11:03:28;99679.53;;;7.41;82.99
66742;BME280;53654;54.152;19.432;2023-01-15T11:05:59;99677.61;;;7.29;83.45
66742;BME280;53654;54.152;19.432;2023-01-15T11:08:28;99686.02;;;7.22;83.63
66742;BME280;53654;54.152;19.432;2023-01-15T11:11:39;99686.67;;;7.09;83.84
66742;BME280;53654;54.152;19.432;2023-01-15T11:17:23;99685.95;;;6.97;84.59
66742;BME280;53654;54.152;19.432;2023-01-15T11:20:30;99683.05;;;6.93;84.51
66742;BME280;53654;54.152;19.432;2023-01-15T11:23:08;99683.23;;;6.92;84.61
66742;BME280;53654;54.152;19.432;2023-01-15T11:25:38;99668.15;;;6.92;84.89
66742;BME280;53654;54.152;19.432;2023-01-15T11:28:11;99663.09;;;6.95;85.17
66742;BME280;53654;54.152;19.432;2023-01-15T11:30:51;99666.36;;;6.97;84.91
66742;BME280;53654;54.152;19.432;2023-01-15T11:33:24;99667.57;;;6.97;84.82
66742;BME280;53654;54.152;19.432;2023-01-15T11:35:57;99668.58;;;7.00;84.79
66742;BME280;53654;54.152;19.432;2023-01-15T11:38:51;99672.54;;;7.03;84.52
66742;BME280;53654;54.152;19.432;2023-01-15T11:43:56;99684.09;;;7.08;84.66
66742;BME280;53654;54.152;19.432;2023-01-15T11:46:46;99684.92;;;7.12;84.63
66742;BME280;53654;54.152;19.432;2023-01-15T11:49:32;99692.86;;;7.14;84.75
66742;BME280;53654;54.152;19.432;2023-01-15T11:52:21;99706.33;;;7.20;84.84
66742;BME280;53654;54.152;19.432;2023-01-15T11:54:53;99706.45;;;7.24;84.89
66742;BME280;53654;54.152;19.432;2023-01-15T11:57:27;99710.05;;;7.29;84.80
66742;BME280;53654;54.152;19.432;2023-01-15T11:59:58;99721.14;;;7.30;84.49
66742;BME280;53654;54.152;19.432;2023-01-15T12:05:01;99719.69;;;7.35;84.06
66742;BME280;53654;54.152;19.432;2023-01-15T12:07:37;99720.20;;;7.36;84.00
66742;BME280;53654;54.152;19.432;2023-01-15T12:10:10;99709.77;;;7.38;84.11
66742;BME280;53654;54.152;19.432;2023-01-15T12:15:34;99708.90;;;7.37;83.90
66742;BME280;53654;54.152;19.432;2023-01-15T12:23:34;99699.87;;;7.38;83.64
66742;BME280;53654;54.152;19.432;2023-01-15T12:26:14;99702.14;;;7.37;83.47
66742;BME280;53654;54.152;19.432;2023-01-15T12:29:23;99704.91;;;7.38;83.78
66742;BME280;53654;54.152;19.432;2023-01-15T12:31:58;99711.20;;;7.35;83.69
66742;BME280;53654;54.152;19.432;2023-01-15T12:34:39;99724.19;;;7.36;83.91
66742;BME280;53654;54.152;19.432;2023-01-15T12:37:14;99730.08;;;7.37;83.65
66742;BME280;53654;54.152;19.432;2023-01-15T12:39:56;99728.16;;;7.38;83.63
66742;BME280;53654;54.152;19.432;2023-01-15T12:42:26;99727.79;;;7.40;83.51
66742;BME280;53654;54.152;19.432;2023-01-15T12:45:18;99727.09;;;7.40;83.26
66742;BME280;53654;54.152;19.432;2023-01-15T12:56:01;99747.85;;;7.45;82.65
66742;BME280;53654;54.152;19.432;2023-01-15T12:58:51;99744.44;;;7.41;82.61
66742;BME280;53654;54.152;19.432;2023-01-15T13:12:18;99721.30;;;7.15;83.13
66742;BME280;53654;54.152;19.432;2023-01-15T13:14:46;99716.70;;;7.07;83.18
66742;BME280;53654;54.152;19.432;2023-01-15T13:17:23;99711.06;;;7.00;83.50
66742;BME280;53654;54.152;19.432;2023-01-15T13:20:50;99708.55;;;6.92;83.85
66742;BME280;53654;54.152;19.432;2023-01-15T13:26:50;99721.81;;;6.64;84.73
66742;BME280;53654;54.152;19.432;2023-01-15T13:37:42;99750.16;;;6.52;86.06
66742;BME280;53654;54.152;19.432;2023-01-15T13:40:34;99759.02;;;6.49;86.21
66742;BME280;53654;54.152;19.432;2023-01-15T13:43:07;99762.33;;;6.47;86.22
66742;BME280;53654;54.152;19.432;2023-01-15T13:45:39;99761.62;;;6.49;86.36
66742;BME280;53654;54.152;19.432;2023-01-15T13:48:19;99766.45;;;6.51;86.33
66742;BME280;53654;54.152;19.432;2023-01-15T13:50:52;99770.44;;;6.51;86.44
66742;BME280;53654;54.152;19.432;2023-01-15T13:53:25;99767.33;;;6.51;86.38
66742;BME280;53654;54.152;19.432;2023-01-15T13:56:06;99763.66;;;6.53;86.39
66742;BME280;53654;54.152;19.432;2023-01-15T13:58:51;99765.25;;;6.50;86.08
66742;BME280;53654;54.152;19.432;2023-01-15T14:06:38;99767.52;;;6.47;85.94
66742;BME280;53654;54.152;19.432;2023-01-15T14:23:42;99794.63;;;6.35;86.27
66742;BME280;53654;54.152;19.432;2023-01-15T14:35:14;99797.23;;;6.34;86.75
66742;BME280;53654;54.152;19.432;2023-01-15T14:37:53;99799.64;;;6.38;86.75
66742;BME280;53654;54.152;19.432;2023-01-15T14:40:32;99800.66;;;6.39;86.27
66742;BME280;53654;54.152;19.432;2023-01-15T14:43:08;99807.76;;;6.42;86.37
66742;BME280;53654;54.152;19.432;2023-01-15T14:45:39;99809.12;;;6.45;86.13
66742;BME280;53654;54.152;19.432;2023-01-15T14:48:36;99813.42;;;6.50;86.07
66742;BME280;53654;54.152;19.432;2023-01-15T14:51:09;99811.15;;;6.51;85.87
66742;BME280;53654;54.152;19.432;2023-01-15T14:59:08;99809.38;;;6.57;85.12
66742;BME280;53654;54.152;19.432;2023-01-15T15:01:48;99809.04;;;6.57;84.79
66742;BME280;53654;54.152;19.432;2023-01-15T15:07:04;99815.27;;;6.59;84.47
66742;BME280;53654;54.152;19.432;2023-01-15T15:09:39;99816.13;;;6.59;84.21
66742;BME280;53654;54.152;19.432;2023-01-15T15:18:00;99820.08;;;6.63;83.33
66742;BME280;53654;54.152;19.432;2023-01-15T15:21:09;99815.40;;;6.62;83.10
66742;BME280;53654;54.152;19.432;2023-01-15T15:23:56;99807.27;;;6.60;82.86
66742;BME280;53654;54.152;19.432;2023-01-15T15:26:30;99800.17;;;6.60;82.32
66742;BME280;53654;54.152;19.432;2023-01-15T15:29:01;99799.99;;;6.61;82.11
66742;BME280;53654;54.152;19.432;2023-01-15T15:31:36;99800.67;;;6.63;81.75
66742;BME280;53654;54.152;19.432;2023-01-15T15:34:45;99798.41;;;6.64;81.66
66742;BME280;53654;54.152;19.432;2023-01-15T15:37:18;99811.26;;;6.61;81.57
66742;BME280;53654;54.152;19.432;2023-01-15T15:39:54;99818.87;;;6.62;81.55
66742;BME280;53654;54.152;19.432;2023-01-15T15:42:29;99819.58;;;6.61;81.37
66742;BME280;53654;54.152;19.432;2023-01-15T15:45:23;99820.29;;;6.59;81.41
66742;BME280;53654;54.152;19.432;2023-01-15T15:48:19;99810.40;;;6.59;81.38
66742;BME280;53654;54.152;19.432;2023-01-15T15:56:47;99812.30;;;6.60;81.10
66742;BME280;53654;54.152;19.432;2023-01-15T15:59:28;99820.29;;;6.59;81.08